createdAt,value
2023-03-14T00:00:31.720Z,4.10
2023-03-14T00:02:59.990Z,4.57
2023-03-14T00:05:28.768Z,4.50
2023-03-14T00:07:56.909Z,4.57
2023-03-14T00:10:25.124Z,4.60
2023-03-14T00:12:53.246Z,4.00
2023-03-14T00:15:22.904Z,4.33
2023-03-14T00:17:51.057Z,4.50
2023-03-14T00:20:19.424Z,4.60
2023-03-14T00:22:47.529Z,3.63
2023-03-14T00:25:15.693Z,5.00
2023-03-14T00:27:43.779Z,5.50
2023-03-14T00:30:15.016Z,4.53
2023-03-14T00:32:44.702Z,3.77
2023-03-14T00:35:13.004Z,4.70
2023-03-14T00:37:41.155Z,4.17
2023-03-14T00:40:11.161Z,4.90
2023-03-14T00:42:39.342Z,4.77
2023-03-14T00:45:09.825Z,4.43
2023-03-14T00:47:38.001Z,4.47
2023-03-14T00:50:08.800Z,5.00
2023-03-14T00:52:37.010Z,4.20
2023-03-14T00:55:05.734Z,3.93
2023-03-14T00:57:36.159Z,4.87
2023-03-14T01:00:09.270Z,5.03
2023-03-14T01:02:37.477Z,4.73
2023-03-14T01:05:08.343Z,5.53
2023-03-14T01:07:36.422Z,5.43
2023-03-14T01:10:05.012Z,5.70
2023-03-14T01:12:34.056Z,5.73
2023-03-14T01:15:04.172Z,5.67
2023-03-14T01:17:32.328Z,5.10
2023-03-14T01:20:01.514Z,6.23
2023-03-14T01:22:31.560Z,6.03
2023-03-14T01:24:59.673Z,6.90
2023-03-14T01:27:27.767Z,6.30
2023-03-14T01:29:56.018Z,7.00
2023-03-14T01:32:24.916Z,6.93
2023-03-14T01:34:54.336Z,6.50
2023-03-14T01:37:23.010Z,8.10
2023-03-14T01:39:52.680Z,8.13
2023-03-14T01:42:21.549Z,7.57
2023-03-14T01:44:52.500Z,7.37
2023-03-14T01:47:21.003Z,6.60
2023-03-14T01:49:52.161Z,6.70
2023-03-14T01:52:24.785Z,7.27
2023-03-14T01:54:57.437Z,6.87
2023-03-14T01:57:30.540Z,7.60
2023-03-14T02:00:04.874Z,6.90
2023-03-14T02:02:44.118Z,7.00
2023-03-14T02:05:16.630Z,7.93
2023-03-14T02:07:50.882Z,6.60
2023-03-14T02:10:29.152Z,6.83
2023-03-14T02:13:01.608Z,7.20
2023-03-14T02:15:40.320Z,6.40
2023-03-14T02:18:16.659Z,7.10
2023-03-14T02:20:58.909Z,6.37
2023-03-14T02:23:35.129Z,6.90
2023-03-14T02:26:11.103Z,7.30
2023-03-14T02:28:40.909Z,6.97
2023-03-14T02:31:10.197Z,6.90
2023-03-14T02:33:40.601Z,7.10
2023-03-14T02:36:13.119Z,6.90
2023-03-14T02:38:48.623Z,6.77
2023-03-14T02:41:17.164Z,8.40
2023-03-14T02:43:53.190Z,6.80
2023-03-14T02:46:23.825Z,7.17
2023-03-14T02:48:55.812Z,7.30
2023-03-14T02:51:25.368Z,7.10
2023-03-14T02:53:53.635Z,7.67
2023-03-14T02:56:23.565Z,7.43
2023-03-14T02:58:53.024Z,6.50
2023-03-14T03:01:41.486Z,6.47
2023-03-14T03:04:10.239Z,6.53
2023-03-14T03:06:38.900Z,6.30
2023-03-14T03:09:07.229Z,5.30
2023-03-14T03:11:38.860Z,5.10
2023-03-14T03:14:09.466Z,5.00
2023-03-14T03:16:37.613Z,5.37
2023-03-14T03:19:05.953Z,4.80
2023-03-14T03:21:34.170Z,5.40
2023-03-14T03:24:02.222Z,5.00
2023-03-14T03:26:30.428Z,4.73
2023-03-14T03:28:58.539Z,4.40
2023-03-14T03:31:28.043Z,4.63
2023-03-14T03:33:56.667Z,4.23
2023-03-14T03:36:27.826Z,3.63
2023-03-14T03:38:56.076Z,3.67
2023-03-14T03:41:24.553Z,3.67
2023-03-14T03:43:55.103Z,2.20
2023-03-14T03:46:23.574Z,2.40
2023-03-14T03:48:58.083Z,2.43
2023-03-14T03:51:28.368Z,2.97
2023-03-14T03:53:58.305Z,2.70
2023-03-14T03:56:32.551Z,2.57
2023-03-14T03:59:03.599Z,2.17
2023-03-14T04:01:31.756Z,2.80
2023-03-14T04:04:03.039Z,3.90
2023-03-14T04:06:31.959Z,3.47
2023-03-14T04:09:02.628Z,4.17
2023-03-14T04:11:39.678Z,4.70
2023-03-14T04:14:17.355Z,4.70
2023-03-14T04:16:45.861Z,4.87
2023-03-14T04:19:18.687Z,3.70
2023-03-14T04:21:48.104Z,4.40
2023-03-14T04:24:16.536Z,4.20
2023-03-14T04:26:48.148Z,4.10
2023-03-14T04:29:16.708Z,3.60
2023-03-14T04:31:46.522Z,3.80
2023-03-14T04:34:14.666Z,4.47
2023-03-14T04:36:52.894Z,3.50
2023-03-14T04:39:26.998Z,4.10
2023-03-14T04:42:03.873Z,3.90
2023-03-14T04:44:32.318Z,3.20
2023-03-14T04:47:00.768Z,4.10
2023-03-14T04:49:29.236Z,3.67
2023-03-14T04:51:58.875Z,3.47
2023-03-14T04:54:29.066Z,4.20
2023-03-14T04:57:00.057Z,3.90
2023-03-14T04:59:32.467Z,3.13
2023-03-14T05:02:08.972Z,3.00
2023-03-14T05:04:55.562Z,3.73
2023-03-14T05:07:42.198Z,3.47
2023-03-14T05:10:38.916Z,4.03
2023-03-14T05:13:27.450Z,3.00
2023-03-14T05:16:09.437Z,3.23
2023-03-14T05:18:49.743Z,2.67
2023-03-14T05:21:40.837Z,2.80
2023-03-14T05:24:13.322Z,2.87
2023-03-14T05:27:19.721Z,3.03
2023-03-14T05:30:04.200Z,2.70
2023-03-14T05:32:45.121Z,2.93
2023-03-14T05:35:39.095Z,2.70
2023-03-14T05:38:25.959Z,2.80
2023-03-14T05:41:10.163Z,2.90
2023-03-14T05:43:58.764Z,2.80
2023-03-14T05:47:02.193Z,2.57
2023-03-14T05:49:43.238Z,2.10
2023-03-14T05:52:23.335Z,3.13
2023-03-14T05:55:03.396Z,3.03
2023-03-14T05:58:05.818Z,2.60
2023-03-14T06:00:47.264Z,2.70
2023-03-14T06:03:25.963Z,1.87
2023-03-14T06:05:54.199Z,1.87
2023-03-14T06:08:24.581Z,2.37
2023-03-14T06:10:53.009Z,2.07
2023-03-14T06:13:27.379Z,2.03
2023-03-14T06:15:58.648Z,1.93
2023-03-14T06:18:26.901Z,2.80
2023-03-14T06:20:56.705Z,2.10
2023-03-14T06:23:27.900Z,2.13
2023-03-14T06:26:15.694Z,1.90
2023-03-14T06:28:46.582Z,2.40
2023-03-14T06:31:15.186Z,2.10
2023-03-14T06:33:52.680Z,1.97
2023-03-14T06:36:21.732Z,2.03
2023-03-14T06:38:50.752Z,2.60
2023-03-14T06:41:19.707Z,2.70
2023-03-14T06:43:51.504Z,2.83
2023-03-14T06:46:20.075Z,2.53
2023-03-14T06:48:48.397Z,2.40
2023-03-14T06:51:16.619Z,2.37
2023-03-14T06:53:45.039Z,2.97
2023-03-14T06:56:16.213Z,2.97
2023-03-14T06:58:46.842Z,2.83
2023-03-14T07:01:24.846Z,3.20
2023-03-14T07:03:54.460Z,2.87
2023-03-14T07:06:24.478Z,3.07
2023-03-14T07:08:52.963Z,3.60
2023-03-14T07:11:21.119Z,3.20
2023-03-14T07:13:49.702Z,3.50
2023-03-14T07:16:17.973Z,3.00
2023-03-14T07:18:47.831Z,3.50
2023-03-14T07:21:17.368Z,3.10
2023-03-14T07:23:45.455Z,3.53
2023-03-14T07:26:15.016Z,3.53
2023-03-14T07:28:48.332Z,2.80
2023-03-14T07:31:23.874Z,3.57
2023-03-14T07:33:54.590Z,3.30
2023-03-14T07:36:24.829Z,3.53
2023-03-14T07:38:53.452Z,3.73
2023-03-14T07:41:22.158Z,3.27
2023-03-14T07:44:09.277Z,3.03
2023-03-14T07:46:37.549Z,4.53
2023-03-14T07:49:07.313Z,3.60
2023-03-14T07:51:35.583Z,3.17
2023-03-14T07:54:06.262Z,3.23
2023-03-14T07:56:34.467Z,3.47
2023-03-14T07:59:04.655Z,2.83
2023-03-14T08:01:35.213Z,2.87
2023-03-14T08:04:03.444Z,3.40
2023-03-14T08:06:35.220Z,3.67
2023-03-14T08:09:04.126Z,3.43
2023-03-14T08:11:32.422Z,2.97
2023-03-14T08:14:00.496Z,3.40
2023-03-14T08:16:28.701Z,2.97
2023-03-14T08:18:57.145Z,3.13
2023-03-14T08:21:25.300Z,3.10
2023-03-14T08:23:54.757Z,3.10
2023-03-14T08:26:23.255Z,3.70
2023-03-14T08:28:51.276Z,2.90
2023-03-14T08:31:19.806Z,2.70
2023-03-14T08:33:48.060Z,3.67
2023-03-14T08:36:16.586Z,2.83
2023-03-14T08:38:44.820Z,2.70
2023-03-14T08:41:14.379Z,2.67
2023-03-14T08:43:42.552Z,2.73
2023-03-14T08:46:10.616Z,3.20
2023-03-14T08:48:38.935Z,2.30
2023-03-14T08:51:08.174Z,3.00
2023-03-14T08:53:36.441Z,3.07
2023-03-14T08:56:06.733Z,2.73
2023-03-14T08:58:38.440Z,3.07
2023-03-14T09:01:07.288Z,2.73
2023-03-14T09:03:35.733Z,3.17
2023-03-14T09:06:06.131Z,1.83
2023-03-14T09:08:38.113Z,1.53
2023-03-14T09:11:09.813Z,2.00
2023-03-14T09:13:39.627Z,2.07
2023-03-14T09:16:09.457Z,1.67
2023-03-14T09:18:38.005Z,2.27
2023-03-14T09:21:06.604Z,2.00
2023-03-14T09:23:35.369Z,1.30
2023-03-14T09:26:03.784Z,2.40
2023-03-14T09:28:32.087Z,2.10
2023-03-14T09:31:08.835Z,2.30
2023-03-14T09:33:37.151Z,2.30
2023-03-14T09:36:06.344Z,1.60
2023-03-14T09:38:34.777Z,1.30
2023-03-14T09:41:05.014Z,1.20
2023-03-14T09:43:35.524Z,1.20
2023-03-14T09:46:05.745Z,1.00
2023-03-14T09:48:36.809Z,0.60
2023-03-14T09:51:13.211Z,0.60
2023-03-14T09:53:44.072Z,0.70
2023-03-14T09:56:15.878Z,0.60
2023-03-14T09:58:46.497Z,0.50
2023-03-14T10:01:20.173Z,0.50
2023-03-14T10:03:49.114Z,0.93
2023-03-14T10:06:17.636Z,0.50
2023-03-14T10:08:47.004Z,0.53
2023-03-14T10:11:17.994Z,0.53
2023-03-14T10:14:04.962Z,0.70
2023-03-14T10:16:36.511Z,0.70
2023-03-14T10:19:07.122Z,0.90
2023-03-14T10:21:40.353Z,0.50
2023-03-14T10:24:33.363Z,0.90
2023-03-14T10:27:04.147Z,0.70
2023-03-14T10:29:33.495Z,0.90
2023-03-14T10:32:05.559Z,1.97
2023-03-14T10:34:36.917Z,0.50
2023-03-14T10:37:10.072Z,0.60
2023-03-14T10:39:44.863Z,0.80
2023-03-14T10:42:22.829Z,0.80
2023-03-14T10:44:57.746Z,1.20
2023-03-14T10:47:30.308Z,0.90
2023-03-14T10:49:59.251Z,0.90
2023-03-14T10:52:57.322Z,1.27
2023-03-14T10:55:17.575Z,1.27
2023-03-14T10:57:46.812Z,1.87
2023-03-14T11:00:19.487Z,2.47
2023-03-14T11:03:01.851Z,1.50
2023-03-14T11:05:35.589Z,1.50
2023-03-14T11:08:09.562Z,1.20
2023-03-14T11:10:43.791Z,1.43
2023-03-14T11:13:19.163Z,1.10
2023-03-14T11:15:55.898Z,1.20
2023-03-14T11:18:52.235Z,1.50
2023-03-14T11:21:26.981Z,1.30
2023-03-14T11:24:06.566Z,1.77
2023-03-14T11:26:43.345Z,1.53
2023-03-14T11:29:22.720Z,2.50
2023-03-14T11:31:51.277Z,1.80
2023-03-14T11:34:29.812Z,1.80
2023-03-14T11:37:03.247Z,1.77
2023-03-14T11:39:40.690Z,2.17
2023-03-14T11:42:14.994Z,2.73
2023-03-14T11:44:45.230Z,2.13
2023-03-14T11:47:17.388Z,2.33
2023-03-14T11:49:52.329Z,2.23
2023-03-14T11:52:26.123Z,3.00
2023-03-14T11:54:58.784Z,3.60
2023-03-14T11:57:26.949Z,3.93
2023-03-14T11:59:58.778Z,4.70
2023-03-14T12:02:34.588Z,3.13
2023-03-14T12:05:35.684Z,4.50
2023-03-14T12:08:30.871Z,4.03
2023-03-14T12:11:04.747Z,3.23
2023-03-14T12:13:36.648Z,4.63
2023-03-14T12:16:08.759Z,4.53
2023-03-14T12:18:40.178Z,4.10
2023-03-14T12:21:12.837Z,5.03
2023-03-14T12:23:46.290Z,4.03
2023-03-14T12:26:18.197Z,4.50
2023-03-14T12:29:11.565Z,4.33
2023-03-14T12:31:44.739Z,4.60
2023-03-14T12:34:33.464Z,4.57
2023-03-14T12:37:16.450Z,4.63
2023-03-14T12:39:52.601Z,3.73
2023-03-14T12:42:44.868Z,3.80
2023-03-14T12:45:25.837Z,3.83
2023-03-14T12:48:12.847Z,3.10
2023-03-14T12:50:45.055Z,3.27
2023-03-14T12:53:51.821Z,3.30
2023-03-14T12:56:27.023Z,2.90
2023-03-14T12:59:16.794Z,2.47
2023-03-14T13:01:55.261Z,2.90
2023-03-14T13:04:39.021Z,3.20
2023-03-14T13:07:14.141Z,2.73
2023-03-14T13:10:27.361Z,2.50
2023-03-14T13:12:59.875Z,2.67
2023-03-14T13:15:34.689Z,3.30
2023-03-14T13:18:11.031Z,3.07
2023-03-14T13:20:42.585Z,2.60
2023-03-14T13:23:22.252Z,3.20
2023-03-14T13:25:50.553Z,3.00
2023-03-14T13:28:20.933Z,2.87
2023-03-14T13:30:51.170Z,2.40
2023-03-14T13:33:21.567Z,2.37
2023-03-14T13:35:51.941Z,2.30
2023-03-14T13:38:21.954Z,2.73
2023-03-14T13:41:00.145Z,2.80
2023-03-14T13:43:32.186Z,2.70
2023-03-14T13:46:06.468Z,2.50
2023-03-14T13:48:37.446Z,2.30
2023-03-14T13:51:08.394Z,2.73
2023-03-14T13:53:45.806Z,2.47
2023-03-14T13:56:14.255Z,3.27
2023-03-14T13:58:44.835Z,2.77
2023-03-14T14:01:17.987Z,2.17
2023-03-14T14:03:50.287Z,2.50
2023-03-14T14:06:35.195Z,1.93
2023-03-14T14:09:12.027Z,2.70
2023-03-14T14:11:52.933Z,2.50
2023-03-14T14:14:30.587Z,2.87
2023-03-14T14:17:01.938Z,3.03
2023-03-14T14:19:32.533Z,3.17
2023-03-14T14:22:01.012Z,2.20
2023-03-14T14:24:35.590Z,3.00
2023-03-14T14:27:10.641Z,2.27
2023-03-14T14:29:40.638Z,2.40
2023-03-14T14:32:15.294Z,3.30
2023-03-14T14:34:50.531Z,3.30
2023-03-14T14:37:24.019Z,3.60
2023-03-14T14:39:54.840Z,3.40
2023-03-14T14:42:26.842Z,3.30
2023-03-14T14:44:57.783Z,2.77
2023-03-14T14:47:27.825Z,2.20
2023-03-14T14:50:00.377Z,3.00
2023-03-14T14:52:38.805Z,3.17
2023-03-14T14:55:15.384Z,3.03
2023-03-14T14:57:50.216Z,2.87
2023-03-14T15:00:23.926Z,2.20
2023-03-14T15:02:55.472Z,2.40
2023-03-14T15:05:26.669Z,2.23
2023-03-14T15:07:55.335Z,2.13
2023-03-14T15:10:25.926Z,2.30
2023-03-14T15:12:54.305Z,2.57
2023-03-14T15:15:23.986Z,2.77
2023-03-14T15:17:52.097Z,2.47
2023-03-14T15:20:20.567Z,2.63
2023-03-14T15:22:53.479Z,3.10
2023-03-14T15:25:47.348Z,3.10
2023-03-14T15:28:20.748Z,2.80
2023-03-14T15:30:51.351Z,2.10
2023-03-14T15:33:19.936Z,3.00
2023-03-14T15:35:48.521Z,2.50
2023-03-14T15:38:21.863Z,2.47
2023-03-14T15:40:50.661Z,2.27
2023-03-14T15:43:19.167Z,3.30
2023-03-14T15:45:47.400Z,3.80
2023-03-14T15:48:19.480Z,2.40
2023-03-14T15:50:47.993Z,2.43
2023-03-14T15:53:18.356Z,3.10
2023-03-14T15:55:46.542Z,2.83
2023-03-14T15:58:21.684Z,3.03
2023-03-14T16:00:51.122Z,2.60
2023-03-14T16:03:21.178Z,2.80
2023-03-14T16:05:49.323Z,2.70
2023-03-14T16:08:17.592Z,2.50
2023-03-14T16:10:46.960Z,2.77
2023-03-14T16:13:15.300Z,2.60
2023-03-14T16:15:43.522Z,2.53
2023-03-14T16:18:21.083Z,3.03
2023-03-14T16:20:56.132Z,3.17
2023-03-14T16:23:24.418Z,3.17
2023-03-14T16:25:52.927Z,3.70
2023-03-14T16:28:21.313Z,2.47
2023-03-14T16:30:49.454Z,2.57
2023-03-14T16:33:18.296Z,3.07
2023-03-14T16:35:56.858Z,2.60
2023-03-14T16:38:25.590Z,2.30
2023-03-14T16:41:02.582Z,2.33
2023-03-14T16:43:31.293Z,2.53
2023-03-14T16:46:00.856Z,2.73
2023-03-14T16:48:29.401Z,2.63
2023-03-14T16:50:59.881Z,2.57
2023-03-14T16:53:30.324Z,2.63
2023-03-14T16:55:59.764Z,2.90
2023-03-14T16:58:28.303Z,2.50
2023-03-14T17:00:57.771Z,2.80
2023-03-14T17:03:28.170Z,2.63
2023-03-14T17:05:57.776Z,2.63
2023-03-14T17:08:25.955Z,2.23
2023-03-14T17:10:54.090Z,2.47
2023-03-14T17:13:25.678Z,2.90
2023-03-14T17:15:55.595Z,2.80
2023-03-14T17:18:24.152Z,2.33
2023-03-14T17:20:52.847Z,2.00
2023-03-14T17:23:23.126Z,2.90
2023-03-14T17:25:51.981Z,2.67
2023-03-14T17:28:22.151Z,2.60
2023-03-14T17:30:50.732Z,3.03
2023-03-14T17:33:18.966Z,3.27
2023-03-14T17:35:47.134Z,2.90
2023-03-14T17:38:15.298Z,2.83
2023-03-14T17:40:48.655Z,3.70
2023-03-14T17:43:17.197Z,2.50
2023-03-14T17:45:45.289Z,2.80
2023-03-14T17:48:13.717Z,3.10
2023-03-14T17:50:42.166Z,3.13
2023-03-14T17:53:10.282Z,2.60
2023-03-14T17:55:38.372Z,2.50
2023-03-14T17:58:07.926Z,2.13
2023-03-14T18:00:36.034Z,1.90
2023-03-14T18:03:04.708Z,2.50
2023-03-14T18:05:32.858Z,2.10
2023-03-14T18:08:01.007Z,2.60
2023-03-14T18:10:29.516Z,2.70
2023-03-14T18:12:57.859Z,2.27
2023-03-14T18:15:27.569Z,3.27
2023-03-14T18:17:55.736Z,3.00
2023-03-14T18:20:24.245Z,2.50
2023-03-14T18:22:52.459Z,2.00
2023-03-14T18:25:20.764Z,2.70
2023-03-14T18:27:48.883Z,2.70
2023-03-14T18:30:17.506Z,2.30
2023-03-14T18:32:47.057Z,2.60
2023-03-14T18:35:15.519Z,2.87
2023-03-14T18:37:46.012Z,2.57
2023-03-14T18:40:17.416Z,3.03
2023-03-14T18:42:45.573Z,3.10
2023-03-14T18:45:14.050Z,2.50
2023-03-14T18:47:42.173Z,2.60
2023-03-14T18:50:13.293Z,2.77
2023-03-14T18:52:41.560Z,2.77
2023-03-14T18:55:11.224Z,2.67
2023-03-14T18:57:39.398Z,3.13
2023-03-14T19:00:10.920Z,3.20
2023-03-14T19:02:39.212Z,3.90
2023-03-14T19:05:09.264Z,2.77
2023-03-14T19:07:42.482Z,3.50
2023-03-14T19:10:12.368Z,3.13
2023-03-14T19:12:40.484Z,2.93
2023-03-14T19:15:11.860Z,3.20
2023-03-14T19:17:40.060Z,3.10
2023-03-14T19:20:10.142Z,3.70
2023-03-14T19:22:39.986Z,3.33
2023-03-14T19:25:10.140Z,2.63
2023-03-14T19:27:39.025Z,2.67
2023-03-14T19:30:08.504Z,3.07
2023-03-14T19:32:36.696Z,3.40
2023-03-14T19:35:05.194Z,3.60
2023-03-14T19:37:36.470Z,2.63
2023-03-14T19:40:09.415Z,2.60
2023-03-14T19:42:39.028Z,2.77
2023-03-14T19:45:08.448Z,2.70
2023-03-14T19:47:36.601Z,2.90
2023-03-14T19:50:04.896Z,4.40
2023-03-14T19:52:32.957Z,3.83
2023-03-14T19:55:01.880Z,4.40
2023-03-14T19:57:31.325Z,2.70
2023-03-14T19:59:59.855Z,3.40
2023-03-14T20:02:29.579Z,3.80
2023-03-14T20:04:57.910Z,2.77
2023-03-14T20:07:27.878Z,2.57
2023-03-14T20:09:56.137Z,2.57
2023-03-14T20:12:24.354Z,2.80
2023-03-14T20:14:53.933Z,4.07
2023-03-14T20:17:22.433Z,3.60
2023-03-14T20:19:50.514Z,5.10
2023-03-14T20:22:18.777Z,3.80
2023-03-14T20:24:46.984Z,4.13
2023-03-14T20:27:15.166Z,3.83
2023-03-14T20:29:43.678Z,3.87
2023-03-14T20:32:13.190Z,3.80
2023-03-14T20:34:41.377Z,3.70
2023-03-14T20:37:09.602Z,4.40
2023-03-14T20:39:37.852Z,3.90
2023-03-14T20:42:06.039Z,4.10
2023-03-14T20:48:07.443Z,3.80
2023-03-14T20:50:35.565Z,3.53
2023-03-14T20:53:03.859Z,3.30
2023-03-14T20:55:32.072Z,5.43
2023-03-14T20:58:00.636Z,5.03
2023-03-14T21:00:29.032Z,4.90
2023-03-14T21:02:57.250Z,4.70
2023-03-14T21:05:27.467Z,4.83
2023-03-14T21:07:55.716Z,5.07
2023-03-14T21:10:23.727Z,4.70
2023-03-14T21:12:51.815Z,3.60
2023-03-14T21:15:20.106Z,4.50
2023-03-14T21:17:48.307Z,4.10
2023-03-14T21:20:16.657Z,5.23
2023-03-14T21:22:46.238Z,4.53
2023-03-14T21:25:14.506Z,5.27
2023-03-14T21:27:42.897Z,5.17
2023-03-14T21:30:12.837Z,7.17
2023-03-14T21:32:41.004Z,5.70
2023-03-14T21:35:09.946Z,7.00
2023-03-14T21:37:38.052Z,6.20
2023-03-14T21:40:09.628Z,4.40
2023-03-14T21:42:37.945Z,4.00
2023-03-14T21:45:07.016Z,5.47
2023-03-14T21:47:35.212Z,5.60
2023-03-14T21:50:04.077Z,5.30
2023-03-14T21:52:32.291Z,5.50
2023-03-14T21:55:03.607Z,5.23
2023-03-14T21:57:33.249Z,4.87
2023-03-14T22:00:01.553Z,4.30
2023-03-14T22:02:29.866Z,5.10
2023-03-14T22:04:57.936Z,4.67
2023-03-14T22:07:26.006Z,4.50
2023-03-14T22:09:54.876Z,3.23
2023-03-14T22:12:23.211Z,5.17
2023-03-14T22:14:52.740Z,4.60
2023-03-14T22:17:20.980Z,4.77
2023-03-14T22:19:49.192Z,4.07
2023-03-14T22:22:17.348Z,3.93
2023-03-14T22:24:45.559Z,4.73
2023-03-14T22:27:13.646Z,4.90
2023-03-14T22:29:41.777Z,4.57
2023-03-14T22:32:12.166Z,4.73
2023-03-14T22:34:40.379Z,4.33
2023-03-14T22:37:09.156Z,4.27
2023-03-14T22:39:37.391Z,3.90
2023-03-14T22:42:05.724Z,3.70
2023-03-14T22:44:34.420Z,3.50
2023-03-14T22:47:02.632Z,3.33
2023-03-14T22:49:33.237Z,3.60
2023-03-14T22:52:01.483Z,4.10
2023-03-14T22:54:29.556Z,3.87
2023-03-14T22:56:57.930Z,4.50
2023-03-14T22:59:26.289Z,3.60
2023-03-14T23:01:54.409Z,3.60
2023-03-14T23:04:22.617Z,3.50
2023-03-14T23:06:52.470Z,3.17
2023-03-14T23:09:21.480Z,2.70
2023-03-14T23:11:49.580Z,3.40
2023-03-14T23:14:17.645Z,3.40
2023-03-14T23:16:47.350Z,3.10
2023-03-14T23:19:15.862Z,4.13
2023-03-14T23:21:43.985Z,2.97
2023-03-14T23:24:13.429Z,3.57
2023-03-14T23:26:41.578Z,3.07
2023-03-14T23:29:13.879Z,3.07
2023-03-14T23:31:42.405Z,2.83
2023-03-14T23:34:10.872Z,3.17
2023-03-14T23:36:39.438Z,2.87
2023-03-14T23:39:09.610Z,3.00
2023-03-14T23:41:39.115Z,2.90
2023-03-14T23:44:07.417Z,3.70
2023-03-14T23:46:35.563Z,3.30
2023-03-14T23:49:03.662Z,3.93
2023-03-14T23:51:31.730Z,3.07
2023-03-14T23:53:59.772Z,2.93
2023-03-14T23:56:27.848Z,2.70
2023-03-14T23:58:57.404Z,3.00
